Time;durP1;ratioP1;P1;durP2;ratioP2;P2;SDS_P1;SDS_P2;PMS_P1;PMS_P2;Temp;Humidity;BMP_temperature;BMP_pressure;BME280_temperature;BME280_humidity;BME280_pressure;Samples;Min_cycle;Max_cycle;Signal;HPM_P1;HPM_P2
2022/02/12 00:01:28;;;;;;;2.00;1.70;;;;;;;0.48;88.23;98895.96;105225;1270;75574;-23
2022/02/12 00:03:56;;;;;;;2.50;1.70;;;;;;;0.67;86.92;98900.11;105205;1270;76113;-23
2022/02/12 00:06:24;;;;;;;1.90;1.30;;;;;;;0.48;87.18;98908.91;105192;1270;74372;-23
2022/02/12 00:08:54;;;;;;;1.70;1.20;;;;;;;0.43;87.13;98926.05;104970;1270;61105;-23
2022/02/12 00:11:22;;;;;;;1.00;0.90;;;;;;;0.37;87.35;98928.20;105024;1271;61207;-23
2022/02/12 00:13:51;;;;;;;1.20;1.00;;;;;;;0.41;87.05;98937.91;104948;1269;74341;-23
2022/02/12 00:16:19;;;;;;;1.20;0.90;;;;;;;0.60;86.76;98954.58;105209;1270;74963;-23
2022/02/12 00:18:48;;;;;;;1.20;0.90;;;;;;;0.48;86.66;98954.05;105188;1270;74520;-23
2022/02/12 00:21:16;;;;;;;0.70;0.70;;;;;;;0.20;88.07;98970.71;105103;1270;62897;-23
2022/02/12 00:23:45;;;;;;;1.10;0.70;;;;;;;0.34;87.51;98978.17;104966;1270;61126;-23
2022/02/12 00:26:13;;;;;;;1.20;0.80;;;;;;;0.60;86.68;98981.59;104955;1270;75340;-23
2022/02/12 00:28:42;;;;;;;1.40;0.80;;;;;;;0.27;87.52;98987.69;105170;1271;74466;-23
2022/02/12 00:31:10;;;;;;;0.90;0.70;;;;;;;0.20;87.96;98985.36;105040;1270;74270;-23
2022/02/12 00:33:39;;;;;;;1.40;0.80;;;;;;;0.18;88.21;99001.34;105194;1270;61239;-23
2022/02/12 00:36:07;;;;;;;1.10;0.90;;;;;;;0.40;87.45;99009.88;105198;1270;61781;-23
2022/02/12 00:38:38;;;;;;;1.00;0.60;;;;;;;0.25;87.60;99015.09;105180;1270;74528;-23
2022/02/12 00:41:07;;;;;;;1.60;0.60;;;;;;;0.18;87.98;99018.27;105264;1271;76405;-23
2022/02/12 00:43:37;;;;;;;0.50;0.50;;;;;;;0.43;87.55;99024.78;105243;1270;73102;-24
2022/02/12 00:46:06;;;;;;;0.50;0.50;;;;;;;0.53;86.60;99036.17;105191;1270;62442;-22
2022/02/12 00:48:34;;;;;;;0.50;0.50;;;;;;;0.36;87.36;99048.13;105208;1270;60999;-23
2022/02/12 00:51:02;;;;;;;0.40;0.40;;;;;;;0.12;87.83;99049.23;105018;1270;76090;-23
2022/02/12 00:53:31;;;;;;;0.40;0.40;;;;;;;0.41;87.28;99055.95;104946;1270;76006;-23
2022/02/12 00:55:59;;;;;;;0.40;0.30;;;;;;;0.53;86.42;99057.87;104907;1270;74427;-23
2022/02/12 00:58:28;;;;;;;0.40;0.40;;;;;;;0.50;86.37;99071.31;104923;1270;61128;-23
2022/02/12 01:00:56;;;;;;;0.50;0.50;;;;;;;0.60;86.05;99070.56;104882;1270;61207;-23
2022/02/12 01:03:25;;;;;;;0.50;0.50;;;;;;;0.37;86.69;99069.95;105046;1271;74114;-23
2022/02/12 01:05:54;;;;;;;0.40;0.40;;;;;;;0.31;87.34;99074.29;105034;1270;76063;-23
2022/02/12 01:08:23;;;;;;;0.90;0.50;;;;;;;0.48;86.60;99082.84;105143;1270;74478;-23
2022/02/12 01:10:52;;;;;;;0.50;0.40;;;;;;;0.61;85.63;99084.40;104967;1271;61003;-24
2022/02/12 01:13:21;;;;;;;0.30;0.30;;;;;;;0.51;85.78;99088.70;104907;1270;61039;-23
2022/02/12 01:16:48;;;;;;;0.30;0.30;;;;;;;0.21;87.56;99084.38;101717;1310;600805;-24
2022/02/12 01:19:17;;;;;;;0.50;0.50;;;;;;;0.41;86.75;99086.52;105134;1271;61068;-24
2022/02/12 01:21:45;;;;;;;0.50;0.40;;;;;;;0.55;85.70;99093.86;105108;1271;62246;-24
2022/02/12 01:24:14;;;;;;;1.80;0.30;;;;;;;0.20;86.72;99098.08;105150;1274;73910;-24
2022/02/12 01:26:42;;;;;;;0.40;0.40;;;;;;;-0.04;87.89;99100.36;105018;1274;76023;-24
2022/02/12 01:29:10;;;;;;;0.50;0.50;;;;;;;0.03;88.00;99113.08;105118;1274;73383;-24
2022/02/12 01:31:39;;;;;;;0.50;0.50;;;;;;;0.32;86.91;99113.20;105033;1271;229000;-25
2022/02/12 01:34:07;;;;;;;1.00;0.40;;;;;;;0.40;86.27;99120.04;105116;1271;61822;-24
2022/02/12 01:36:36;;;;;;;0.90;0.70;;;;;;;0.12;86.78;99124.19;105146;1271;72821;-24
2022/02/12 01:39:04;;;;;;;0.80;0.60;;;;;;;-0.14;87.96;99129.55;105102;1273;75116;-24
2022/02/12 01:41:33;;;;;;;0.80;0.60;;;;;;;-0.03;87.48;99133.77;105111;1271;74475;-25
2022/02/12 01:44:09;;;;;;;0.40;0.40;;;;;;;0.13;86.47;99139.14;104989;1271;62434;-25
2022/02/12 01:46:38;;;;;;;0.80;0.80;;;;;;;0.18;86.50;99164.73;104772;1274;62529;-24
2022/02/12 01:49:06;;;;;;;0.50;0.50;;;;;;;-0.07;87.24;99165.48;105145;1271;74891;-24
2022/02/12 01:51:35;;;;;;;0.60;0.40;;;;;;;-0.17;87.55;99165.83;105159;1271;75938;-24
2022/02/12 01:54:05;;;;;;;0.70;0.60;;;;;;;0.12;86.76;99163.45;104947;1271;72744;-24
2022/02/12 01:56:34;;;;;;;1.30;0.90;;;;;;;-0.06;87.14;99171.58;104939;1271;61033;-24
2022/02/12 01:59:03;;;;;;;0.70;0.70;;;;;;;-0.04;87.26;99182.95;104907;1274;61088;-24
2022/02/12 02:01:32;;;;;;;0.60;0.60;;;;;;;-0.14;87.72;99187.41;105148;1271;73356;-23
2022/02/12 02:04:00;;;;;;;0.50;0.50;;;;;;;-0.05;87.41;99184.02;105160;1271;75830;-23
2022/02/12 02:06:29;;;;;;;0.80;0.60;;;;;;;0.16;86.35;99195.06;105133;1271;73433;-23
2022/02/12 02:08:59;;;;;;;0.60;0.60;;;;;;;0.10;86.49;99201.91;105100;1274;61093;-23
2022/02/12 02:11:28;;;;;;;0.40;0.40;;;;;;;0.01;86.61;99211.12;104886;1274;61217;-23
2022/02/12 02:13:57;;;;;;;1.20;0.40;;;;;;;-0.09;87.60;99214.86;105173;1271;74703;-22
2022/02/12 02:16:26;;;;;;;0.60;0.50;;;;;;;0.25;85.97;99221.02;105187;1271;76088;-23
2022/02/12 02:18:54;;;;;;;0.60;0.60;;;;;;;0.19;86.28;99219.55;105118;1271;74346;-22
2022/02/12 02:21:23;;;;;;;0.70;0.60;;;;;;;-0.08;87.44;99227.98;105182;1271;61057;-23
2022/02/12 02:23:51;;;;;;;0.60;0.60;;;;;;;-0.11;87.69;99237.48;105095;1271;61966;-23
2022/02/12 02:26:20;;;;;;;0.90;0.70;;;;;;;-0.08;88.06;99240.42;105036;1271;74826;-22
2022/02/12 02:28:48;;;;;;;0.50;0.50;;;;;;;0.23;86.44;99243.13;105065;1271;75995;-22
2022/02/12 02:31:17;;;;;;;0.60;0.60;;;;;;;0.17;86.34;99245.38;104967;1271;74085;-22
2022/02/12 02:33:46;;;;;;;1.00;0.50;;;;;;;-0.06;87.15;99252.98;105146;1271;61209;-22
2022/02/12 02:36:16;;;;;;;0.50;0.40;;;;;;;-0.06;87.39;99259.34;105068;1271;61196;-22
2022/02/12 02:38:44;;;;;;;0.40;0.40;;;;;;;0.10;87.39;99266.11;105024;1271;73990;-22
2022/02/12 02:41:12;;;;;;;0.50;0.50;;;;;;;0.21;86.33;99257.70;105136;1271;75982;-22
2022/02/12 02:43:41;;;;;;;0.60;0.50;;;;;;;0.06;86.62;99258.57;105129;1271;70536;-22
2022/02/12 02:46:18;;;;;;;0.50;0.50;;;;;;;0.09;87.09;99272.83;105112;1271;61291;-22
2022/02/12 02:48:46;;;;;;;1.10;0.60;;;;;;;-0.14;87.83;99277.52;105123;1271;61930;-22
2022/02/12 02:56:49;;;;;;;0.50;0.50;;;;;;;0.20;86.24;99301.27;105134;1271;74364;-22
2022/02/12 02:59:17;;;;;;;0.80;0.70;;;;;;;-0.06;87.41;99302.51;105130;1274;61089;-22
2022/02/12 03:01:52;;;;;;;0.90;0.90;;;;;;;-0.18;87.94;99306.46;105127;1271;61102;-22
2022/02/12 03:04:21;;;;;;;0.70;0.70;;;;;;;0.03;87.22;99312.79;105152;1271;73954;-22
2022/02/12 03:06:49;;;;;;;0.80;0.80;;;;;;;0.18;86.60;99314.84;105147;1271;76607;-22
2022/02/12 03:09:18;;;;;;;1.00;0.90;;;;;;;0.07;86.31;99311.95;105088;1274;74341;-22
2022/02/12 03:11:48;;;;;;;3.20;0.90;;;;;;;-0.13;87.09;99328.34;105156;1271;61004;-22
2022/02/12 03:14:16;;;;;;;2.40;0.80;;;;;;;-0.07;87.31;99332.39;105081;1271;61722;-25
2022/02/12 03:16:44;;;;;;;1.60;1.00;;;;;;;0.25;85.80;99341.25;105035;1271;74568;-22
2022/02/12 03:19:13;;;;;;;1.10;0.90;;;;;;;0.23;85.37;99335.68;104934;1271;75820;-22
2022/02/12 03:21:41;;;;;;;1.60;1.00;;;;;;;0.08;85.92;99337.89;105017;1269;74234;-22
2022/02/12 03:24:10;;;;;;;2.00;1.00;;;;;;;-0.06;86.71;99347.77;105128;1270;61144;-22
2022/02/12 03:26:38;;;;;;;1.80;1.30;;;;;;;-0.05;86.89;99339.85;105100;1271;62108;-21
2022/02/12 03:29:06;;;;;;;2.30;1.00;;;;;;;0.23;85.73;99341.98;104857;1274;74584;-21
2022/02/12 03:31:35;;;;;;;1.60;1.30;;;;;;;0.24;85.54;99353.41;104960;1272;75998;-21
2022/02/12 03:34:03;;;;;;;1.20;1.10;;;;;;;0.02;86.72;99354.30;104923;1271;73482;-21
2022/02/12 03:36:32;;;;;;;2.60;1.60;;;;;;;-0.03;87.20;99359.41;104865;1272;61013;-21
2022/02/12 03:39:01;;;;;;;2.00;1.20;;;;;;;-0.05;87.08;99356.76;104944;1271;61046;-21
2022/02/12 03:41:29;;;;;;;2.20;1.50;;;;;;;0.08;86.35;99360.11;105005;1271;74123;-24
2022/02/12 03:43:58;;;;;;;2.80;1.80;;;;;;;-0.02;86.75;99366.04;105046;1271;75987;-23
2022/02/12 03:46:26;;;;;;;2.80;1.80;;;;;;;-0.02;87.21;99362.30;105140;1271;74333;-23
2022/02/12 03:48:54;;;;;;;2.80;2.00;;;;;;;-0.16;87.58;99364.80;105095;1274;61084;-22
2022/02/12 03:51:23;;;;;;;2.60;1.80;;;;;;;0.07;86.88;99363.54;105019;1271;61157;-22
2022/02/12 03:53:51;;;;;;;4.30;2.90;;;;;;;0.15;85.98;99367.87;105113;1271;74858;-23
2022/02/12 03:56:20;;;;;;;3.80;2.50;;;;;;;0.07;86.07;99378.38;105157;1274;75477;-23
2022/02/12 03:58:48;;;;;;;4.60;3.10;;;;;;;-0.12;86.60;99367.40;104829;1271;73477;-23
2022/02/12 04:01:16;;;;;;;5.10;2.50;;;;;;;-0.20;87.35;99380.95;105093;1271;61627;-23
2022/02/12 04:03:45;;;;;;;5.60;2.30;;;;;;;0.10;86.31;99377.59;105137;1271;62485;-24
2022/02/12 04:06:13;;;;;;;5.90;3.20;;;;;;;0.05;86.10;99379.98;105130;1271;76141;-23
2022/02/12 04:08:42;;;;;;;6.30;2.90;;;;;;;-0.06;86.46;99379.99;105125;1271;75159;-23
2022/02/12 04:11:11;;;;;;;5.00;3.30;;;;;;;-0.21;86.95;99372.63;105134;1271;72873;-23
2022/02/12 04:13:39;;;;;;;4.90;2.80;;;;;;;-0.00;86.41;99377.25;105185;1271;61157;-23
2022/02/12 04:16:08;;;;;;;5.60;3.90;;;;;;;0.22;85.25;99386.60;105117;1271;62078;-24
2022/02/12 04:18:36;;;;;;;6.50;3.60;;;;;;;0.10;85.50;99385.13;105132;1271;73930;-24
2022/02/12 04:21:05;;;;;;;5.50;3.30;;;;;;;-0.02;85.84;99387.90;105185;1271;73210;-23
2022/02/12 04:23:33;;;;;;;5.10;3.30;;;;;;;-0.07;86.29;99390.27;105172;1274;74317;-23
2022/02/12 04:26:05;;;;;;;9.90;5.10;;;;;;;0.11;85.70;99400.45;105044;1271;61702;-23
2022/02/12 04:28:36;;;;;;;8.20;3.80;;;;;;;0.11;84.93;99398.23;104885;1271;62057;-23
2022/02/12 04:31:04;;;;;;;7.40;4.20;;;;;;;0.16;84.68;99401.64;104989;1271;73136;-24
2022/02/12 04:33:34;;;;;;;6.50;3.80;;;;;;;0.04;84.89;99403.58;104964;1271;72317;-24
2022/02/12 04:36:02;;;;;;;6.10;3.10;;;;;;;-0.15;85.88;99401.11;104825;1271;74584;-23
2022/02/12 04:38:31;;;;;;;6.20;3.70;;;;;;;0.01;85.31;99406.76;105003;1271;61151;-23
2022/02/12 04:41:00;;;;;;;7.50;3.40;;;;;;;0.15;84.58;99412.61;105127;1271;61050;-23
2022/02/12 04:43:49;;;;;;;7.30;4.10;;;;;;;0.24;84.03;99404.30;105123;1274;73648;-24
2022/02/12 04:46:17;;;;;;;7.20;3.70;;;;;;;-0.02;84.70;99417.42;105144;1271;74906;-23
2022/02/12 04:48:48;;;;;;;6.10;3.90;;;;;;;-0.14;84.99;99425.31;105150;1270;74544;-23
2022/02/12 04:51:18;;;;;;;7.40;3.90;;;;;;;0.09;84.90;99433.98;105116;1274;61003;-23
2022/02/12 04:53:48;;;;;;;6.60;3.80;;;;;;;0.14;84.34;99432.45;105182;1271;62054;-23
2022/02/12 04:56:16;;;;;;;9.20;4.30;;;;;;;0.12;84.38;99442.93;105019;1271;73333;-23
2022/02/12 04:58:44;;;;;;;8.10;3.90;;;;;;;0.04;84.19;99446.77;104991;1271;76020;-23
2022/02/12 05:01:20;;;;;;;6.70;3.80;;;;;;;-0.07;84.79;99448.33;105096;1271;74336;-23
2022/02/12 05:03:52;;;;;;;6.60;3.70;;;;;;;0.31;83.56;99459.92;105064;1271;61243;-23
2022/02/12 05:06:21;;;;;;;8.30;3.60;;;;;;;0.36;82.95;99464.36;104940;1271;61131;-24
2022/02/12 05:08:49;;;;;;;10.90;4.00;;;;;;;0.34;82.88;99468.35;105138;1271;74741;-23
2022/02/12 05:11:17;;;;;;;7.30;4.30;;;;;;;0.06;83.87;99469.25;104938;1271;75934;-23
2022/02/12 05:13:46;;;;;;;8.20;3.70;;;;;;;-0.08;84.24;99476.67;104765;1271;73455;-23
2022/02/12 05:16:15;;;;;;;9.80;4.80;;;;;;;0.27;83.31;99482.92;104930;1271;61111;-23
2022/02/12 05:18:44;;;;;;;7.00;4.20;;;;;;;0.43;82.02;99482.24;105012;1272;61067;-24
2022/02/12 05:21:12;;;;;;;8.30;4.50;;;;;;;0.23;82.83;99479.81;105129;1271;74724;-23
2022/02/12 05:23:41;;;;;;;5.80;2.90;;;;;;;-0.06;83.61;99492.33;105182;1271;76000;-23
2022/02/12 05:26:09;;;;;;;8.70;4.20;;;;;;;-0.09;84.00;99499.56;105152;1271;74501;-23
2022/02/12 05:28:38;;;;;;;7.40;3.50;;;;;;;0.08;83.72;99497.01;105138;1272;61073;-23
2022/02/12 05:31:07;;;;;;;8.10;4.50;;;;;;;0.20;82.28;99492.01;105137;1271;61146;-24
2022/02/12 05:33:39;;;;;;;6.70;3.10;;;;;;;0.24;82.19;99506.91;105148;1271;75449;-24
2022/02/12 05:36:08;;;;;;;8.90;4.00;;;;;;;0.09;82.48;99509.26;105124;1271;75093;-24
2022/02/12 05:38:39;;;;;;;11.40;4.60;;;;;;;-0.08;83.23;99515.08;105107;1271;72606;-23
2022/02/12 05:41:08;;;;;;;7.10;3.80;;;;;;;-0.11;83.44;99522.50;104917;1274;61938;-23
2022/02/12 05:43:37;;;;;;;6.20;4.10;;;;;;;0.29;82.05;99521.63;104950;1271;61016;-24
2022/02/12 05:46:06;;;;;;;9.10;2.90;;;;;;;0.42;81.38;99520.55;105017;1271;75410;-23
2022/02/12 05:48:34;;;;;;;5.90;4.30;;;;;;;0.25;81.96;99529.45;104854;1271;76160;-23
2022/02/12 05:51:02;;;;;;;7.70;3.60;;;;;;;-0.02;82.87;99533.34;104829;1271;74332;-23
2022/02/12 05:53:31;;;;;;;7.80;4.60;;;;;;;-0.19;83.81;99529.40;105162;1271;61073;-23
2022/02/12 05:55:59;;;;;;;9.70;4.20;;;;;;;-0.02;83.15;99526.84;105018;1271;61172;-23
2022/02/12 05:58:28;;;;;;;6.40;4.00;;;;;;;0.30;81.84;99536.29;104870;1271;75273;-24
2022/02/12 06:00:56;;;;;;;8.60;4.90;;;;;;;0.15;82.28;99538.63;104937;1274;75809;-23
2022/02/12 06:03:24;;;;;;;7.80;4.40;;;;;;;-0.01;82.68;99546.09;105109;1269;73059;-24
2022/02/12 06:05:53;;;;;;;8.90;4.60;;;;;;;-0.08;83.29;99552.83;104795;1271;61010;-24
2022/02/12 06:08:22;;;;;;;13.30;5.40;;;;;;;-0.19;83.63;99564.71;104815;1271;61051;-24
2022/02/12 06:10:53;;;;;;;7.90;3.90;;;;;;;0.15;82.35;99571.58;105113;1271;75608;-24
2022/02/12 06:13:21;;;;;;;9.30;6.10;;;;;;;0.31;81.26;99571.63;104998;1271;75134;-24
2022/02/12 06:15:49;;;;;;;9.90;5.50;;;;;;;0.19;81.45;99570.10;105120;1271;74222;-24
2022/02/12 06:18:18;;;;;;;12.40;5.30;;;;;;;0.04;81.93;99573.45;105121;1271;61220;-23
2022/02/12 06:20:46;;;;;;;7.90;4.80;;;;;;;-0.07;82.85;99583.34;104998;1271;61101;-24
2022/02/12 06:23:15;;;;;;;10.50;5.00;;;;;;;0.25;81.99;99578.80;104814;1271;75713;-23
2022/02/12 06:25:43;;;;;;;9.20;4.30;;;;;;;0.36;80.97;99581.88;105064;1271;76026;-24
2022/02/12 06:28:14;;;;;;;8.60;5.00;;;;;;;0.35;80.47;99585.34;105126;1271;74863;-23
2022/02/12 06:30:43;;;;;;;6.30;3.90;;;;;;;0.15;80.70;99586.79;105110;1271;61173;-23
2022/02/12 06:33:11;;;;;;;8.80;4.80;;;;;;;-0.05;81.85;99597.95;105015;1271;61111;-23
2022/02/12 06:35:39;;;;;;;9.80;4.80;;;;;;;-0.24;82.48;99600.88;104986;1270;75283;-25
2022/02/12 06:38:08;;;;;;;10.00;5.40;;;;;;;0.03;81.78;99601.98;104746;1274;76006;-25
2022/02/12 06:40:37;;;;;;;12.50;6.00;;;;;;;0.16;80.86;99608.26;105108;1271;74492;-23
2022/02/12 06:43:07;;;;;;;8.90;5.30;;;;;;;0.23;80.74;99610.95;105166;1271;61033;-23
2022/02/12 06:45:37;;;;;;;9.20;6.00;;;;;;;0.05;81.22;99615.39;105119;1271;61042;-25
2022/02/12 06:48:06;;;;;;;9.80;5.70;;;;;;;-0.16;81.59;99619.77;105133;1271;76216;-24
2022/02/12 06:50:47;;;;;;;9.50;4.80;;;;;;;-0.25;82.49;99631.45;105123;1271;76032;-24
2022/02/12 06:53:15;;;;;;;7.70;4.80;;;;;;;0.17;80.79;99630.43;105142;1271;74148;-23
2022/02/12 06:55:43;;;;;;;4.10;2.60;;;;;;;0.49;79.64;99642.48;105126;1271;62253;-23
2022/02/12 06:58:14;;;;;;;11.80;4.20;;;;;;;0.44;79.23;99648.44;105134;1271;61033;-23
2022/02/12 07:00:43;;;;;;;13.20;4.70;;;;;;;0.15;80.02;99648.42;105144;1271;75591;-23
2022/02/12 07:03:12;;;;;;;11.60;5.20;;;;;;;0.05;80.69;99653.33;105135;1271;75978;-23
2022/02/12 07:05:40;;;;;;;5.90;3.50;;;;;;;0.02;80.95;99655.27;105106;1271;73482;-23
2022/02/12 07:08:09;;;;;;;7.30;3.00;;;;;;;0.08;81.02;99659.70;105110;1272;62870;-23
2022/02/12 07:10:37;;;;;;;9.10;4.40;;;;;;;0.65;78.89;99664.73;105183;1274;61038;-23
2022/02/12 07:13:06;;;;;;;11.70;4.30;;;;;;;0.84;77.89;99673.02;105142;1271;75533;-23
2022/02/12 07:15:35;;;;;;;10.70;4.20;;;;;;;0.62;78.27;99673.86;105166;1271;75141;-23
2022/02/12 07:18:06;;;;;;;12.10;4.70;;;;;;;0.21;79.60;99679.01;105159;1271;74377;-23
2022/02/12 07:20:34;;;;;;;6.30;3.50;;;;;;;0.08;80.01;99675.59;105142;1271;61166;-23
2022/02/12 07:23:02;;;;;;;9.30;4.70;;;;;;;0.01;80.38;99677.52;105161;1271;61311;-23
2022/02/12 07:25:31;;;;;;;5.90;4.00;;;;;;;0.19;80.11;99686.24;105130;1271;75498;-23
2022/02/12 07:28:05;;;;;;;6.10;2.90;;;;;;;0.71;78.41;99690.16;105125;1271;75045;-24
2022/02/12 07:30:33;;;;;;;9.60;3.80;;;;;;;0.92;77.26;99698.94;105144;1272;74241;-24
2022/02/12 07:33:01;;;;;;;8.10;3.80;;;;;;;0.70;77.84;99700.47;105119;1271;61127;-23
2022/02/12 07:35:30;;;;;;;10.30;3.90;;;;;;;0.52;78.32;99708.52;105120;1272;61113;-23
2022/02/12 07:37:59;;;;;;;10.90;4.00;;;;;;;0.28;78.42;99708.69;105157;1271;75893;-23
2022/02/12 07:40:28;;;;;;;7.00;3.40;;;;;;;0.09;79.48;99713.48;105105;1274;75984;-24
2022/02/12 07:42:57;;;;;;;5.20;2.40;;;;;;;0.17;78.89;99717.20;105098;1271;73415;-23
2022/02/12 07:45:26;;;;;;;8.90;3.00;;;;;;;0.49;76.95;99720.39;105114;1271;60956;-24
2022/02/12 07:47:56;;;;;;;9.20;3.90;;;;;;;0.28;77.04;99725.27;105162;1271;61063;-24
2022/02/12 07:50:25;;;;;;;5.90;2.80;;;;;;;0.41;77.41;99738.72;105157;1271;74845;-23
2022/02/12 07:52:53;;;;;;;11.20;3.50;;;;;;;0.08;77.19;99729.35;105175;1271;74964;-24
2022/02/12 07:55:22;;;;;;;4.60;3.30;;;;;;;0.09;77.68;99742.84;105106;1271;73437;-23
2022/02/12 07:57:50;;;;;;;10.40;3.50;;;;;;;-0.07;77.89;99733.38;105101;1271;60973;-23
2022/02/12 08:00:19;;;;;;;6.80;2.70;;;;;;;0.09;78.25;99744.71;105189;1271;61885;-23
2022/02/12 08:02:49;;;;;;;8.90;3.40;;;;;;;0.56;77.30;99756.91;105180;1271;75365;-25
2022/02/12 08:05:19;;;;;;;5.60;3.00;;;;;;;0.36;77.14;99757.48;105129;1271;75050;-26
2022/02/12 08:07:48;;;;;;;5.50;3.10;;;;;;;0.16;77.77;99758.85;105171;1271;72924;-26
2022/02/12 08:13:04;;;;;;;11.00;3.00;;;;;;;0.01;77.76;99765.94;105102;1274;61016;-25
2022/02/12 08:15:37;;;;;;;6.50;3.20;;;;;;;-0.03;77.90;99770.48;105145;1271;75540;-23
2022/02/12 08:18:06;;;;;;;8.60;3.30;;;;;;;0.16;76.71;99769.83;105141;1271;76031;-23
2022/02/12 08:20:34;;;;;;;6.20;2.60;;;;;;;0.59;75.72;99784.00;105086;1271;74771;-24
2022/02/12 08:23:03;;;;;;;8.70;2.80;;;;;;;0.71;74.86;99780.06;104956;1271;61038;-23
2022/02/12 08:25:31;;;;;;;7.30;3.30;;;;;;;0.73;75.11;99784.97;104886;1271;61047;-23
2022/02/12 08:28:00;;;;;;;8.90;3.60;;;;;;;0.65;75.39;99785.20;104952;1271;75341;-23
2022/02/12 08:30:31;;;;;;;12.30;4.00;;;;;;;0.58;76.55;99793.77;105124;1274;75997;-24
2022/02/12 08:33:08;;;;;;;6.90;3.40;;;;;;;0.50;76.39;99800.66;105155;1271;71712;-24
2022/02/12 08:35:54;;;;;;;4.70;2.90;;;;;;;0.49;77.60;99808.71;105086;1271;61044;-24
2022/02/12 08:38:22;;;;;;;10.10;3.40;;;;;;;0.60;76.38;99814.92;104887;1271;62606;-24
2022/02/12 08:40:53;;;;;;;10.60;3.70;;;;;;;0.99;75.11;99816.88;105083;1271;74323;-24
2022/02/12 08:43:21;;;;;;;8.20;4.10;;;;;;;0.70;74.60;99819.59;105159;1273;76140;-24
2022/02/12 08:45:49;;;;;;;5.80;3.00;;;;;;;0.70;75.84;99830.00;105101;1271;74158;-24
2022/02/12 08:48:18;;;;;;;5.50;3.40;;;;;;;0.67;76.36;99837.97;105152;1271;61151;-24
2022/02/12 08:50:46;;;;;;;8.00;4.00;;;;;;;0.75;77.42;99839.77;105107;1271;61098;-24
2022/02/12 08:53:16;;;;;;;6.50;2.80;;;;;;;0.60;77.16;99841.40;105173;1271;75649;-24
2022/02/12 08:55:58;;;;;;;9.30;4.60;;;;;;;0.71;76.69;99845.53;105045;1271;74274;-24
2022/02/12 08:58:26;;;;;;;7.60;3.20;;;;;;;1.15;74.74;99848.71;105115;1271;72865;-24
2022/02/12 09:00:55;;;;;;;6.60;3.30;;;;;;;1.04;75.87;99860.15;105141;1271;62431;-24
2022/02/12 09:03:24;;;;;;;7.30;4.10;;;;;;;1.03;76.11;99865.33;105139;1271;61152;-24
2022/02/12 09:05:52;;;;;;;9.30;4.10;;;;;;;0.96;76.62;99861.09;105163;1271;75397;-24
2022/02/12 09:08:20;;;;;;;4.60;2.60;;;;;;;0.91;77.66;99858.98;104902;1271;75745;-25
2022/02/12 09:10:50;;;;;;;8.70;3.70;;;;;;;0.98;76.39;99861.02;104925;1271;74401;-25
2022/02/12 09:13:18;;;;;;;5.30;3.40;;;;;;;0.82;76.62;99873.27;104773;1274;61148;-25
2022/02/12 09:15:47;;;;;;;4.70;2.50;;;;;;;1.24;76.64;99880.77;104924;1271;61119;-25
2022/02/12 09:18:16;;;;;;;8.00;3.70;;;;;;;1.62;74.61;99874.68;104939;1271;75301;-24
2022/02/12 09:20:44;;;;;;;4.20;3.10;;;;;;;1.61;74.50;99880.88;104874;1273;75619;-24
2022/02/12 09:23:12;;;;;;;5.10;2.40;;;;;;;1.45;72.98;99877.42;105114;1271;74405;-24
2022/02/12 09:25:41;;;;;;;8.70;3.60;;;;;;;1.54;73.31;99888.63;104959;1271;61084;-24
2022/02/12 09:28:22;;;;;;;5.00;3.40;;;;;;;1.22;74.17;99893.34;104916;1271;61029;-24
2022/02/12 09:30:51;;;;;;;12.90;5.20;;;;;;;1.15;74.72;99891.50;104804;1274;75319;-24
2022/02/12 09:33:19;;;;;;;8.30;5.10;;;;;;;1.05;75.70;99898.61;104842;1272;75955;-24
2022/02/12 09:35:56;;;;;;;9.20;4.90;;;;;;;1.19;76.70;99904.03;104936;1271;74378;-24
2022/02/12 09:38:30;;;;;;;9.70;4.80;;;;;;;1.37;77.16;99908.64;104815;1272;61268;-24
2022/02/12 09:40:58;;;;;;;8.00;4.40;;;;;;;2.12;74.44;99909.41;104929;1271;61214;-24
2022/02/12 09:43:28;;;;;;;9.70;5.40;;;;;;;2.29;72.91;99918.11;105149;1271;75105;-25
2022/02/12 09:46:15;;;;;;;8.50;4.60;;;;;;;2.17;72.78;99916.42;104862;1271;76310;-24
2022/02/12 09:48:46;;;;;;;8.90;3.70;;;;;;;1.88;73.06;99921.13;104836;1271;74111;-23
2022/02/12 09:51:15;;;;;;;9.80;4.60;;;;;;;1.39;74.48;99912.34;104850;1270;61140;-23
2022/02/12 09:53:43;;;;;;;10.60;4.90;;;;;;;1.30;74.72;99919.80;104879;1271;61998;-23
2022/02/12 09:56:12;;;;;;;9.30;5.30;;;;;;;1.13;75.41;99923.02;105031;1271;75558;-23
2022/02/12 09:58:40;;;;;;;7.20;3.50;;;;;;;1.07;75.17;99925.40;105216;1271;75991;-23
2022/02/12 10:01:09;;;;;;;8.90;4.60;;;;;;;1.43;75.23;99925.73;105095;1274;74079;-22
2022/02/12 10:03:41;;;;;;;12.90;5.70;;;;;;;1.59;74.68;99928.70;105137;1271;62183;-23
2022/02/12 10:06:11;;;;;;;8.70;5.10;;;;;;;1.19;75.60;99933.45;105125;1271;61006;-23
2022/02/12 10:08:41;;;;;;;7.90;4.20;;;;;;;1.19;76.20;99942.35;105069;1271;74620;-23
2022/02/12 10:11:16;;;;;;;6.30;3.60;;;;;;;1.30;77.40;99946.30;105145;1271;75888;-23
2022/02/12 10:13:44;;;;;;;8.50;4.60;;;;;;;1.41;75.95;99944.45;105084;1272;74400;-23
2022/02/12 10:16:13;;;;;;;5.90;3.80;;;;;;;1.22;76.04;99947.56;105121;1274;61015;-23
2022/02/12 10:18:42;;;;;;;5.50;4.00;;;;;;;1.35;76.27;99946.34;105154;1271;61032;-23
2022/02/12 10:21:11;;;;;;;7.50;4.60;;;;;;;1.65;74.42;99951.97;105131;1271;75637;-23
2022/02/12 10:23:40;;;;;;;9.10;5.20;;;;;;;1.55;73.72;99950.22;105143;1271;76021;-23
2022/02/12 10:26:10;;;;;;;9.30;4.90;;;;;;;1.44;74.85;99959.41;105128;1271;74819;-23
2022/02/12 10:28:42;;;;;;;8.00;5.40;;;;;;;1.45;75.03;99957.52;104897;1271;61153;-23
2022/02/12 10:31:11;;;;;;;9.40;6.10;;;;;;;1.33;75.72;99959.40;104887;1271;61108;-23
2022/02/12 10:33:41;;;;;;;9.10;4.50;;;;;;;1.25;76.07;99962.20;105183;1271;75480;-23
2022/02/12 10:36:15;;;;;;;7.60;4.90;;;;;;;1.26;75.97;99970.55;104825;1272;76053;-23
2022/02/12 10:38:51;;;;;;;9.70;3.80;;;;;;;1.31;73.98;99977.08;105088;1271;73410;-23
2022/02/12 10:41:21;;;;;;;6.20;3.70;;;;;;;1.53;72.71;99989.45;104770;1274;62321;-23
2022/02/12 10:43:54;;;;;;;8.90;4.50;;;;;;;1.55;72.72;99988.20;104789;1271;61381;-25
2022/02/12 10:46:23;;;;;;;4.10;2.80;;;;;;;1.45;71.52;99989.16;104998;1271;75596;-23
2022/02/12 10:48:53;;;;;;;6.40;3.50;;;;;;;1.16;71.84;99991.70;104804;1274;76492;-24
2022/02/12 10:51:22;;;;;;;7.00;3.30;;;;;;;0.93;73.15;99996.06;104736;1271;74679;-24
2022/02/12 10:53:54;;;;;;;5.90;3.50;;;;;;;0.95;74.04;99997.91;104788;1271;61157;-24
2022/02/12 10:56:22;;;;;;;7.60;4.20;;;;;;;0.77;75.10;100002.11;104759;1271;61219;-23
2022/02/12 10:58:50;;;;;;;9.20;4.50;;;;;;;0.95;75.77;100005.26;104889;1271;75278;-23
2022/02/12 11:01:18;;;;;;;9.90;4.00;;;;;;;1.36;74.43;100006.72;105128;1271;75749;-23
2022/02/12 11:03:47;;;;;;;4.70;3.10;;;;;;;1.24;74.41;100008.25;105084;1272;73507;-23
2022/02/12 11:06:15;;;;;;;6.00;3.40;;;;;;;1.12;75.06;100016.58;105075;1271;61144;-23
2022/02/12 11:08:44;;;;;;;7.60;4.70;;;;;;;1.20;75.73;100018.61;105128;1271;62697;-24
2022/02/12 11:11:12;;;;;;;6.50;4.10;;;;;;;1.07;76.39;100012.12;105169;1271;74491;-23
2022/02/12 11:13:41;;;;;;;7.00;4.30;;;;;;;1.00;77.39;100020.84;104858;1274;76299;-23
2022/02/12 11:16:10;;;;;;;9.80;4.80;;;;;;;1.35;77.16;100026.41;104748;1274;74258;-23
2022/02/12 11:18:39;;;;;;;8.80;4.00;;;;;;;1.39;75.84;100022.52;104762;1274;61248;-22
2022/02/12 11:21:07;;;;;;;7.50;3.70;;;;;;;1.69;75.56;100031.11;104921;1271;61151;-24
2022/02/12 11:23:38;;;;;;;8.50;3.70;;;;;;;1.54;76.34;100031.19;104914;1274;75660;-23
2022/02/12 11:26:08;;;;;;;6.40;3.80;;;;;;;1.46;76.40;100035.02;104855;1271;75871;-23
2022/02/12 11:28:37;;;;;;;4.70;3.10;;;;;;;1.45;76.97;100035.39;104948;1271;72761;-23
2022/02/12 11:31:24;;;;;;;6.90;4.20;;;;;;;1.24;77.15;100042.63;105115;1271;61138;-23
2022/02/12 11:34:02;;;;;;;5.20;3.60;;;;;;;1.35;76.62;100034.45;105147;1271;61079;-23
2022/02/12 11:36:31;;;;;;;5.90;3.70;;;;;;;1.44;75.63;100039.00;104870;1271;75609;-23
2022/02/12 11:39:12;;;;;;;5.80;3.20;;;;;;;1.55;76.46;100046.56;104820;1271;76335;-23
2022/02/12 11:41:44;;;;;;;5.30;3.30;;;;;;;1.68;75.76;100047.05;104765;1271;74437;-23
2022/02/12 11:44:42;;;;;;;9.00;4.60;;;;;;;1.61;75.97;100054.29;104570;1271;61157;-23
2022/02/12 11:47:12;;;;;;;5.10;2.90;;;;;;;1.38;75.88;100045.67;104994;1271;61026;-23
2022/02/12 11:49:44;;;;;;;6.20;3.30;;;;;;;1.46;75.45;100046.82;104831;1271;75683;-23